createdAt,value
2022-10-11T00:08:37.183Z,14.80
2022-10-11T00:18:44.807Z,20.00
2022-10-11T00:28:54.219Z,15.00
2022-10-11T00:39:01.989Z,12.00
2022-10-11T00:49:15.870Z,12.30
2022-10-11T00:59:24.625Z,10.70
2022-10-11T01:09:32.961Z,16.40
2022-10-11T01:19:43.721Z,16.30
2022-10-11T01:29:55.102Z,16.20
2022-10-11T01:40:08.584Z,12.30
2022-10-11T01:50:45.471Z,16.70
2022-10-11T02:00:50.478Z,15.40
2022-10-11T02:10:56.274Z,14.30
2022-10-11T02:21:06.960Z,13.70
2022-10-11T02:31:16.735Z,12.50
2022-10-11T02:41:24.632Z,8.10
2022-10-11T02:51:32.875Z,10.30
2022-10-11T03:01:40.010Z,12.50
2022-10-11T03:11:47.225Z,10.40
2022-10-11T03:21:54.544Z,10.10
2022-10-11T03:32:02.293Z,13.50
2022-10-11T03:42:09.848Z,15.50
2022-10-11T03:52:16.789Z,16.00
2022-10-11T04:02:23.796Z,17.00
2022-10-11T04:12:30.823Z,13.70
2022-10-11T04:22:38.673Z,12.70
2022-10-11T04:32:45.292Z,14.40
2022-10-11T04:42:54.001Z,12.70
2022-10-11T04:53:00.936Z,19.00
2022-10-11T05:03:07.882Z,14.70
2022-10-11T05:13:14.792Z,18.00
2022-10-11T05:23:21.875Z,14.20
2022-10-11T05:33:29.098Z,18.90
2022-10-11T05:43:36.518Z,15.50
2022-10-11T05:53:43.561Z,18.30
2022-10-11T06:03:51.144Z,17.40
2022-10-11T06:13:58.264Z,15.60
2022-10-11T06:24:05.916Z,18.50
2022-10-11T06:34:13.328Z,19.20
2022-10-11T06:44:20.695Z,15.40
2022-10-11T06:54:26.598Z,17.40
2022-10-11T07:04:33.209Z,13.80
2022-10-11T07:14:41.101Z,17.00
2022-10-11T07:24:49.354Z,20.20
2022-10-11T07:34:55.908Z,21.50
2022-10-11T07:45:03.324Z,19.00
2022-10-11T07:55:11.729Z,14.60
2022-10-11T08:05:17.687Z,15.80
2022-10-11T08:15:24.757Z,16.70
2022-10-11T08:25:31.707Z,17.40
2022-10-11T08:35:39.036Z,18.00
2022-10-11T08:45:51.695Z,15.80
2022-10-11T08:55:58.827Z,21.90
2022-10-11T09:06:07.709Z,18.40
2022-10-11T09:16:15.584Z,19.40
2022-10-11T09:26:29.017Z,14.70
2022-10-11T09:36:37.196Z,20.30
2022-10-11T09:46:43.784Z,15.30
2022-10-11T09:56:51.573Z,11.30
2022-10-11T10:07:11.279Z,12.00
2022-10-11T10:17:20.117Z,17.60
2022-10-11T10:27:30.103Z,10.80
2022-10-11T10:37:37.573Z,10.20
2022-10-11T10:48:05.826Z,13.30
2022-10-11T10:58:32.018Z,8.10
2022-10-11T11:08:56.005Z,9.80
2022-10-11T11:19:07.748Z,9.00
2022-10-11T11:29:15.838Z,10.40
2022-10-11T11:39:23.701Z,10.30
2022-10-11T11:59:37.344Z,6.20
2022-10-11T12:09:50.695Z,6.60
2022-10-11T12:20:21.408Z,8.20
2022-10-11T12:30:51.020Z,10.00
2022-10-11T12:40:57.263Z,9.70
2022-10-11T12:51:16.273Z,7.40
2022-10-11T13:11:30.219Z,5.70
2022-10-11T13:21:39.822Z,6.70
2022-10-11T13:31:49.238Z,7.40
2022-10-11T13:41:55.549Z,7.80
2022-10-11T13:52:07.126Z,9.60
2022-10-11T14:02:14.437Z,8.40
2022-10-11T14:12:29.373Z,5.70
2022-10-11T14:22:36.979Z,10.60
2022-10-11T14:32:44.552Z,15.30
2022-10-11T14:42:52.359Z,9.60
2022-10-11T14:53:00.235Z,10.80
2022-10-11T15:03:07.436Z,7.70
2022-10-11T15:13:13.261Z,8.50
2022-10-11T15:23:21.018Z,16.40
2022-10-11T15:33:28.396Z,14.70
2022-10-11T15:43:35.577Z,17.60
2022-10-11T15:53:42.881Z,13.10
2022-10-11T16:03:51.876Z,14.40
2022-10-11T16:13:59.396Z,21.70
2022-10-11T16:24:07.014Z,45.50
2022-10-11T16:34:14.140Z,56.20
2022-10-11T16:44:21.347Z,76.30
2022-10-11T16:54:30.467Z,80.50
2022-10-11T17:04:37.659Z,69.30
2022-10-11T17:14:43.915Z,54.10
2022-10-11T17:34:57.656Z,62.80
2022-10-11T17:45:04.949Z,77.80
2022-10-11T17:55:09.816Z,37.00
2022-10-11T18:05:17.895Z,52.00
2022-10-11T18:15:24.947Z,32.50
2022-10-11T18:25:33.975Z,30.30
2022-10-11T18:35:40.187Z,32.50
2022-10-11T18:45:47.575Z,68.30
2022-10-11T18:55:58.590Z,58.80
2022-10-11T19:06:03.855Z,72.70
2022-10-11T19:16:12.033Z,83.90
2022-10-11T19:26:34.436Z,64.70
2022-10-11T19:36:41.172Z,49.50
2022-10-11T19:46:52.994Z,92.70
2022-10-11T19:57:00.813Z,186.40
2022-10-11T20:07:08.079Z,273.20
2022-10-11T20:17:16.353Z,296.20
2022-10-11T20:27:22.663Z,194.20
2022-10-11T20:37:28.799Z,196.50
2022-10-11T20:47:36.521Z,195.90
2022-10-11T20:57:44.257Z,171.60
2022-10-11T21:07:53.234Z,163.80
2022-10-11T21:18:00.334Z,161.40
2022-10-11T21:28:08.241Z,145.60
2022-10-11T21:38:15.476Z,150.50
2022-10-11T21:48:23.130Z,138.00
2022-10-11T21:58:31.168Z,166.10
2022-10-11T22:08:40.523Z,166.60
2022-10-11T22:18:47.246Z,142.00
2022-10-11T22:28:54.533Z,100.80
2022-10-11T22:39:03.027Z,90.30
2022-10-11T22:49:10.426Z,89.40
2022-10-11T22:59:17.068Z,85.40
2022-10-11T23:09:24.308Z,74.20
2022-10-11T23:19:31.516Z,105.10
2022-10-11T23:29:38.456Z,116.50
2022-10-11T23:39:45.776Z,105.40
2022-10-11T23:49:53.074Z,106.50
2022-10-11T23:59:59.149Z,93.20
